FW3814 Weather Reports


time (UTC)temp
F
wind
direction
speed
knots
gust
knots
rain 1hr
in
rain 24hr
in
rain mn
in
humidity
%
barometer
mb
20221203060508 41 345 2.6 3.5 0.00 0.01 0.01 88 1017.7
20221203055508 41 334 3.5 4.3 0.00 0.01 0.01 88 1018.0
20221203055009 41 346 4.3 7.0 0.00 0.01 0.01 88 1017.9
20221203054508 41 346 4.3 7.0 0.00 0.01 0.01 88 1017.8
20221203054009 41 333 3.5 5.2 0.00 0.01 0.01 88 1017.9
20221203053509 41 330 3.5 4.3 0.00 0.01 0.01 88 1017.9
20221203053009 41 344 3.5 4.3 0.00 0.01 0.01 88 1017.9
20221203052508 40 340 2.6 3.5 0.01 0.01 0.01 88 1018.1
20221203051509 40 340 3.5 4.3 0.01 0.01 0.01 88 1018.0
20221203051008 40 348 3.5 3.5 0.01 0.01 0.01 88 1018.1
20221203050509 40 1 3.5 3.5 0.01 0.01 0.01 88 1018.0
20221203050008 40 348 3.5 3.5 0.01 0.01 0.01 88 1018.1
20221203045008 40 348 2.6 3.5 0.01 0.01 0.01 88 1018.2
20221203044509 40 351 3.5 3.5 0.01 0.01 0.01 88 1018.0
20221203044008 40 345 3.5 3.5 0.01 0.01 0.01 88 1018.1
20221203043509 40 344 3.5 3.5 0.01 0.01 0.01 88 1018.1
20221203043008 40 351 3.5 3.5 0.01 0.01 0.01 88 1018.1
20221203042509 40 338 3.5 4.3 0.00 0.00 0.00 88 1018.0
20221203042008 40 331 3.5 4.3 0.00 0.00 0.00 88 1018.1
20221203041009 40 340 3.5 4.3 0.00 0.00 0.00 88 1018.1
20221203040508 41 341 3.5 3.5 0.00 0.00 0.00 88 1018.2
20221203035009 41 341 4.3 5.2 0.00 0.00 0.00 88 1018.2
20221203034508 41 348 3.5 4.3 0.00 0.00 0.00 88 1018.3
20221203033508 41 320 4.3 5.2 0.00 0.00 0.00 88 1018.3
20221203033008 41 327 4.3 6.1 0.00 0.00 0.00 88 1018.2
20221203032509 41 334 3.5 6.1 0.00 0.00 0.00 88 1018.4
20221203032009 41 339 3.5 5.2 0.00 0.00 0.00 88 1018.5
20221203031016 40 3 3.5 5.2 0.00 0.00 0.00 88 1018.3
20221203030509 40 355 3.5 4.3 0.00 0.00 0.00 88 1018.3
20221203030008 40 354 3.5 4.3 0.00 0.00 0.00 88 1018.2
20221203025509 40 358 2.6 3.5 0.00 0.00 0.00 88 1018.4
20221203024509 40 335 2.6 3.5 0.00 0.00 0.00 88 1018.4
20221203023508 40 1 3.5 4.3 0.00 0.00 0.00 87 1018.5
20221203023009 40 1 3.5 4.3 0.00 0.00 0.00 87 1018.4
20221203022509 40 353 3.5 3.5 0.00 0.00 0.00 87 1018.3
20221203021508 40 330 3.5 4.3 0.00 0.00 0.00 87 1018.3
20221203021009 40 350 3.5 4.3 0.00 0.00 0.00 87 1018.6
20221203020508 40 357 3.5 4.3 0.00 0.00 0.00 87 1018.5
20221203020009 40 357 3.5 4.3 0.00 0.00 0.00 87 1018.6
20221203015508 40 350 3.5 3.5 0.00 0.00 0.00 87 1018.9
20221203015008 40 339 3.5 3.5 0.00 0.00 0.00 87 1018.8
20221203014008 40 339 3.5 3.5 0.00 0.00 0.00 86 1018.7
20221203013509 40 349 2.6 3.5 0.00 0.00 0.00 86 1018.7
20221203013009 40 339 3.5 4.3 0.00 0.00 0.00 86 1018.8
20221203012508 40 328 3.5 4.3 0.00 0.00 0.00 86 1018.7
20221203012009 40 328 4.3 6.1 0.00 0.00 0.00 86 1018.8
20221203011508 40 341 4.3 6.1 0.00 0.00 0.00 86 1018.8
20221203011009 40 7 4.3 5.2 0.00 0.00 0.00 86 1018.8
20221203010508 40 23 4.3 5.2 0.00 0.00 0.00 86 1018.7
20221203010009 40 23 4.3 5.2 0.00 0.00 0.00 86 1018.7
20221203005508 40 23 4.3 4.3 0.00 0.00 0.00 86 1018.6
20221203005008 41 23 4.3 4.3 0.00 0.00 0.00 86 1018.8
20221203004008 41 23 4.3 5.2 0.00 0.00 0.00 86 1019.0
20221203003508 41 23 3.5 3.5 0.00 0.00 0.00 85 1019.1
20221203003009 41 23 3.5 3.5 0.00 0.00 0.00 85 1019.0
20221203002508 41 25 3.5 3.5 0.00 0.00 0.00 85 1019.1
20221203002008 41 46 3.5 3.5 0.00 0.00 0.00 85 1019.1
20221203001508 41 68 2.6 3.5 0.00 0.00 0.00 85 1019.0
20221203001008 41 68 2.6 3.5 0.00 0.00 0.00 85 1019.3
20221203000508 41 68 1.7 2.6 0.00 0.00 0.00 85 1019.2
20221202235509 41 68 1.7 3.5 0.00 0.00 0.00 85 1019.3
20221202234508 41 69 2.6 3.5 0.00 0.00 0.00 85 1019.3
20221202234011 41 88 2.6 3.5 0.00 0.00 0.00 84 1019.3
20221202233508 40 123 2.6 2.6 0.00 0.00 0.00 84 1019.3
20221202233009 41 135 2.6 3.5 0.00 0.00 0.00 84 1019.4
20221202232008 41 135 1.7 1.7 0.00 0.00 0.00 84 1019.2
20221202231007 41 135 0.9 1.7 0.00 0.00 0.00 84 1019.3
20221202230508 41 135 0.9 1.7 0.00 0.00 0.00 84 1019.4
20221202230010 41 135 0.9 1.7 0.00 0.00 0.00 84 1019.4
20221202225507 41 135 0.0 1.7 0.00 0.00 0.00 84 1019.5
20221202225008 41 135 0.9 1.7 0.00 0.00 0.00 84 1019.6
20221202224508 41 135 0.9 1.7 0.00 0.00 0.00 84 1019.6
20221202224008 41 135 0.9 1.7 0.00 0.00 0.00 84 1019.7
20221202223508 41 135 0.0 1.7 0.00 0.00 0.00 84 1019.6
20221202223008 41 135 0.9 1.7 0.00 0.00 0.00 83 1019.6
20221202222507 41 135 1.7 2.6 0.00 0.00 0.00 83 1019.4
20221202222008 41 135 1.7 2.6 0.00 0.00 0.00 83 1019.5
20221202221508 41 135 0.0 1.7 0.00 0.00 0.00 83 1019.6
20221202221009 41 0 0.0 0.0 0.00 0.00 0.00 83 1019.5
20221202220508 41 135 0.0 1.7 0.00 0.00 0.00 83 1019.4
20221202220008 41 135 0.9 1.7 0.00 0.00 0.00 83 1019.3
20221202215508 41 135 0.0 1.7 0.00 0.00 0.00 83 1019.3
20221202215008 41 135 0.9 1.7 0.00 0.00 0.00 83 1019.3
20221202214507 41 135 0.9 1.7 0.00 0.00 0.00 83 1019.1
20221202214008 41 135 0.0 0.9 0.00 0.00 0.00 83 1019.2
20221202213508 41 0 0.0 0.0 0.00 0.00 0.00 83 1019.3
20221202213008 41 135 0.0 1.7 0.00 0.00 0.00 83 1019.2
20221202212508 41 135 0.9 1.7 0.00 0.00 0.00 82 1019.4
20221202212008 41 135 0.9 1.7 0.00 0.00 0.00 82 1019.3
20221202211508 41 135 0.0 1.7 0.00 0.00 0.00 82 1019.2
20221202210508 41 0 0.0 0.0 0.00 0.00 0.00 82 1019.0
20221202210008 41 135 0.0 0.9 0.00 0.00 0.00 82 1019.0
20221202205507 41 135 0.0 0.9 0.00 0.00 0.00 82 1019.1
20221202205008 41 0 0.0 0.0 0.00 0.00 0.00 82 1019.1
20221202204008 41 0 0.0 0.0 0.00 0.00 0.00 82 1019.0
20221202203507 41 0 0.0 0.0 0.00 0.00 0.00 82 1019.0
20221202203008 41 135 0.0 0.9 0.00 0.00 0.00 82 1019.0
20221202202507 41 135 0.0 0.9 0.00 0.00 0.00 82 1018.9
20221202202008 41 135 0.0 1.7 0.00 0.00 0.00 82 1019.2
20221202201008 41 135 0.9 1.7 0.00 0.00 0.00 82 1019.0
20221202200507 41 135 0.0 1.7 0.00 0.00 0.00 82 1019.0
20221202200008 41 135 0.0 1.7 0.00 0.00 0.00 82 1018.9
20221202195508 41 135 0.9 1.7 0.00 0.00 0.00 82 1019.1
20221202195008 41 135 0.0 1.7 0.00 0.00 0.00 82 1018.9
20221202194508 41 0 0.0 0.0 0.00 0.00 0.00 82 1018.9
20221202194007 41 0 0.0 0.0 0.00 0.00 0.00 82 1018.9
20221202193008 42 0 0.0 0.0 0.00 0.00 0.00 82 1018.8
20221202192508 42 0 0.0 0.0 0.00 0.00 0.00 82 1019.0
20221202192008 42 0 0.0 0.0 0.00 0.00 0.00 82 1019.0
20221202191508 42 135 0.0 1.7 0.00 0.00 0.00 82 1018.8
20221202191007 42 135 0.9 1.7 0.00 0.00 0.00 82 1018.8
20221202190508 42 135 0.9 1.7 0.00 0.00 0.00 81 1019.0
20221202190008 42 135 0.0 1.7 0.00 0.00 0.00 81 1018.9
20221202185508 42 135 0.0 0.9 0.00 0.00 0.00 81 1019.0
20221202185007 42 135 0.9 1.7 0.00 0.00 0.00 81 1018.9
20221202184508 42 135 0.9 1.7 0.00 0.00 0.00 81 1018.9
20221202184008 42 135 1.7 1.7 0.00 0.00 0.00 81 1018.8
20221202183508 42 135 1.7 1.7 0.00 0.00 0.00 81 1019.0
20221202183008 42 135 1.7 1.7 0.00 0.00 0.00 81 1018.9
20221202182508 42 135 0.9 1.7 0.00 0.00 0.00 81 1018.9
20221202182007 42 135 0.9 1.7 0.00 0.00 0.00 81 1018.8
20221202181508 42 135 0.9 1.7 0.00 0.00 0.00 81 1018.8
20221202181007 42 135 0.9 1.7 0.00 0.00 0.00 81 1018.7
20221202180508 42 135 0.9 1.7 0.00 0.00 0.00 80 1018.7
20221202180007 42 135 1.7 1.7 0.00 0.00 0.00 80 1018.8
20221202175508 42 135 0.9 1.7 0.00 0.00 0.00 80 1018.7
20221202175007 42 135 0.9 1.7 0.00 0.00 0.00 80 1018.9
20221202174508 42 135 0.9 1.7 0.00 0.00 0.00 80 1018.8
20221202174007 42 135 0.9 1.7 0.00 0.00 0.00 80 1018.7
20221202173008 42 135 0.0 1.7 0.00 0.00 0.00 80 1018.6
20221202172507 42 135 0.9 1.7 0.00 0.00 0.00 80 1018.6
20221202172008 42 135 0.9 1.7 0.00 0.00 0.00 80 1018.5
20221202171507 42 135 0.9 1.7 0.00 0.00 0.00 80 1018.5
20221202171008 42 135 0.0 1.7 0.00 0.00 0.00 80 1018.5
20221202170507 42 135 0.0 1.7 0.00 0.00 0.00 80 1018.5
20221202170008 42 135 0.9 2.6 0.00 0.00 0.00 80 1018.5
20221202165009 43 135 1.7 2.6 0.00 0.00 0.00 80 1018.4
20221202164507 43 135 1.7 2.6 0.00 0.00 0.00 80 1018.5
20221202164008 43 135 1.7 2.6 0.00 0.00 0.00 80 1018.4
20221202163507 43 135 1.7 1.7 0.00 0.00 0.00 80 1018.5
20221202163008 43 135 1.7 1.7 0.00 0.00 0.00 80 1018.5
20221202162507 43 135 1.7 1.7 0.00 0.00 0.00 80 1018.4
20221202162008 43 135 1.7 1.7 0.00 0.00 0.00 80 1018.4
20221202161507 43 135 1.7 2.6 0.00 0.00 0.00 79 1018.4
20221202161008 43 135 1.7 2.6 0.00 0.00 0.00 79 1018.3
20221202160508 43 135 2.6 2.6 0.00 0.00 0.00 79 1018.4
20221202160007 43 135 2.6 2.6 0.00 0.00 0.00 79 1018.1
20221202155508 43 135 2.6 2.6 0.00 0.00 0.00 79 1018.2
20221202155007 43 135 1.7 2.6 0.00 0.00 0.00 79 1018.2
20221202154508 43 135 1.7 1.7 0.00 0.00 0.00 79 1018.3
20221202154007 43 135 1.7 1.7 0.00 0.00 0.00 79 1018.3
20221202153508 43 135 1.7 1.7 0.00 0.00 0.00 79 1018.1
20221202153008 43 135 1.7 1.7 0.00 0.00 0.00 79 1018.2
20221202152507 43 135 1.7 2.6 0.00 0.00 0.00 79 1018.3
20221202152008 43 135 1.7 2.6 0.00 0.00 0.00 79 1018.0
20221202151507 43 135 1.7 2.6 0.00 0.00 0.00 79 1018.0
20221202151007 43 135 1.7 2.6 0.00 0.00 0.00 79 1018.1
20221202150508 43 135 2.6 3.5 0.00 0.00 0.00 79 1018.0
20221202150007 43 135 2.6 3.5 0.00 0.00 0.00 79 1018.1
20221202145508 43 135 2.6 3.5 0.00 0.00 0.00 79 1017.9
20221202145007 44 135 2.6 3.5 0.00 0.00 0.00 79 1018.1
20221202144508 44 135 1.7 3.5 0.00 0.00 0.00 79 1018.1
20221202144007 44 135 2.6 3.5 0.00 0.00 0.00 79 1018.1
20221202143508 44 135 2.6 3.5 0.00 0.00 0.00 78 1017.9
20221202143007 44 135 2.6 3.5 0.00 0.00 0.00 79 1018.1
20221202142507 44 135 2.6 3.5 0.00 0.00 0.00 79 1018.0
20221202142007 44 135 2.6 2.6 0.00 0.00 0.00 78 1018.0
20221202141007 44 135 2.6 2.6 0.00 0.00 0.00 79 1018.1
20221202140507 44 135 2.6 3.5 0.00 0.00 0.00 79 1018.0
20221202140007 44 135 2.6 3.5 0.00 0.00 0.00 79 1017.8
20221202135507 44 135 2.6 3.5 0.00 0.00 0.00 79 1017.9
20221202135007 44 135 2.6 3.5 0.00 0.00 0.00 79 1017.9
20221202134507 44 135 1.7 3.5 0.00 0.00 0.00 79 1017.8
20221202134007 44 135 1.7 2.6 0.00 0.00 0.00 79 1017.7
20221202133507 44 135 2.6 3.5 0.00 0.00 0.00 79 1017.9
20221202132507 44 135 1.7 2.6 0.00 0.00 0.00 79 1017.8
20221202132007 44 135 1.7 2.6 0.00 0.00 0.00 79 1018.0
20221202131507 44 135 1.7 2.6 0.00 0.00 0.00 80 1018.0
20221202131007 44 135 2.6 3.5 0.00 0.00 0.00 80 1018.0
20221202130507 44 135 2.6 3.5 0.00 0.00 0.00 80 1017.9
20221202130007 44 135 1.7 3.5 0.00 0.00 0.00 80 1018.1
20221202125507 44 135 2.6 3.5 0.00 0.00 0.00 79 1017.9
20221202125008 44 135 3.5 3.5 0.00 0.00 0.00 80 1018.1
20221202124007 44 135 1.7 3.5 0.00 0.00 0.00 80 1018.1
20221202123507 44 135 1.7 1.7 0.00 0.00 0.00 80 1018.3
20221202122508 44 135 1.7 2.6 0.00 0.00 0.00 80 1018.3
20221202122007 44 135 2.6 3.5 0.00 0.00 0.00 80 1018.2
20221202121507 44 135 2.6 3.5 0.00 0.00 0.00 80 1018.3
20221202121007 44 135 3.5 3.5 0.00 0.00 0.00 80 1018.3
20221202120507 44 135 3.5 3.5 0.00 0.00 0.00 80 1018.3
20221202120008 44 135 2.6 3.5 0.00 0.00 0.00 80 1018.4
20221202115507 44 135 2.6 3.5 0.00 0.00 0.00 80 1018.6
20221202115007 43 135 2.6 3.5 0.00 0.00 0.00 80 1018.5
20221202114508 43 135 1.7 3.5 0.00 0.00 0.00 80 1018.6
20221202113508 43 135 2.6 3.5 0.00 0.00 0.00 80 1018.6
20221202113007 43 135 2.6 3.5 0.00 0.00 0.00 80 1018.7
20221202112507 43 135 2.6 3.5 0.00 0.00 0.00 80 1018.5
20221202112007 43 127 2.6 3.5 0.00 0.00 0.00 80 1018.7
20221202111507 43 128 2.6 4.3 0.00 0.00 0.00 80 1018.7
20221202111007 43 135 3.5 4.3 0.00 0.00 0.00 80 1018.7
20221202110508 43 125 3.5 4.3 0.00 0.00 0.00 80 1018.7
20221202105507 43 118 2.6 4.3 0.00 0.00 0.00 80 1018.8
20221202105007 43 135 2.6 4.3 0.00 0.00 0.00 80 1018.8
20221202104508 43 135 3.5 5.2 0.00 0.00 0.00 80 1018.8
20221202104007 43 130 3.5 5.2 0.00 0.00 0.00 80 1019.0
20221202103007 43 135 3.5 4.3 0.00 0.00 0.00 80 1018.9
20221202102507 43 134 2.6 3.5 0.00 0.00 0.00 80 1019.0
20221202102007 43 101 2.6 3.5 0.00 0.00 0.00 80 1018.9
20221202101507 43 70 3.5 6.1 0.00 0.00 0.00 80 1019.0
20221202101007 42 81 4.3 6.1 0.00 0.00 0.00 80 1019.1
20221202100508 42 112 3.5 6.1 0.00 0.00 0.00 80 1019.0
20221202100007 42 135 3.5 4.3 0.00 0.00 0.00 80 1019.0
20221202095507 42 135 3.5 4.3 0.00 0.00 0.00 80 1019.1
20221202095007 42 135 3.5 5.2 0.00 0.00 0.00 80 1019.1
20221202094508 42 135 3.5 5.2 0.00 0.00 0.00 80 1019.3
20221202094007 42 135 3.5 3.5 0.00 0.00 0.00 80 1019.2
20221202093507 42 135 3.5 5.2 0.00 0.00 0.00 80 1019.3
20221202093007 42 135 3.5 5.2 0.00 0.00 0.00 80 1019.2
20221202092507 42 135 2.6 3.5 0.00 0.00 0.00 80 1019.3
20221202092007 42 135 1.7 3.5 0.00 0.00 0.00 80 1019.2
20221202091507 42 135 1.7 3.5 0.00 0.00 0.00 80 1019.2
20221202090007 42 135 2.6 3.5 0.00 0.00 0.00 81 1019.1
20221202085507 42 135 2.6 2.6 0.00 0.00 0.00 81 1019.1
20221202084508 42 135 2.6 3.5 0.00 0.00 0.00 81 1019.0
20221202083507 42 135 2.6 3.5 0.00 0.00 0.00 81 1019.1
20221202083007 42 135 2.6 3.5 0.00 0.00 0.00 81 1019.1
20221202082507 41 135 2.6 3.5 0.00 0.00 0.00 81 1019.0
20221202082007 41 135 2.6 3.5 0.00 0.00 0.00 81 1019.0
20221202081507 41 135 2.6 3.5 0.00 0.00 0.00 81 1019.2
20221202081007 41 135 2.6 3.5 0.00 0.00 0.00 81 1018.9
20221202080507 41 135 2.6 3.5 0.00 0.00 0.00 81 1018.8
20221202075507 41 135 2.6 3.5 0.00 0.00 0.00 81 1019.0
20221202075007 41 135 2.6 3.5 0.00 0.00 0.00 81 1018.9
20221202074507 41 135 3.5 4.3 0.00 0.00 0.00 81 1018.9
20221202073507 41 135 3.5 3.5 0.00 0.00 0.00 81 1019.0
20221202073007 41 135 3.5 4.3 0.00 0.00 0.00 81 1018.9
20221202072507 41 135 3.5 4.3 0.00 0.00 0.00 81 1019.1
20221202072007 41 135 3.5 4.3 0.00 0.00 0.00 81 1019.0
20221202071507 41 135 3.5 4.3 0.00 0.00 0.00 81 1019.0
20221202071007 41 135 3.5 4.3 0.00 0.00 0.00 81 1019.0
20221202070507 41 135 3.5 3.5 0.00 0.00 0.00 81 1018.8
20221202070007 41 135 3.5 4.3 0.00 0.00 0.00 81 1018.8
20221202065507 41 135 3.5 4.3 0.00 0.00 0.00 81 1018.7
20221202065007 41 135 3.5 4.3 0.00 0.00 0.00 81 1018.5
20221202064508 41 135 3.5 5.2 0.00 0.00 0.00 81 1018.7
20221202064007 42 135 3.5 5.2 0.00 0.00 0.00 81 1018.5
20221202063507 42 135 3.5 4.3 0.00 0.00 0.00 81 1018.6
20221202061507 42 135 1.7 2.6 0.00 0.00 0.00 81 1018.4
20221202061007 42 135 2.6 2.6 0.00 0.00 0.00 81 1018.5